Time;durP1;ratioP1;P1;durP2;ratioP2;P2;SDS_P1;SDS_P2;PMS_P1;PMS_P2;Temp;Humidity;BMP_temperature;BMP_pressure;BME280_temperature;BME280_humidity;BME280_pressure;Samples;Min_cycle;Max_cycle;Signal;HPM_P1;HPM_P2
2021/06/21 00:01:11;;;;;;;18.33;5.50;;;;;;;;;;6213065;28;20046;-75
2021/06/21 00:04:13;;;;;;;19.25;5.85;;;;;;;;;;6215836;28;20041;-75
2021/06/21 00:07:21;;;;;;;23.35;5.45;;;;;;;;;;6210742;28;20061;-75
2021/06/21 00:10:23;;;;;;;20.23;5.18;;;;;;;;;;6211463;28;20053;-74
2021/06/21 00:13:24;;;;;;;18.48;5.30;;;;;;;;;;6209993;28;20038;-75
2021/06/21 00:16:27;;;;;;;18.00;5.22;;;;;;;;;;6211535;28;20045;-74
2021/06/21 00:19:28;;;;;;;15.40;5.13;;;;;;;;;;6218408;28;20053;-75
2021/06/21 00:22:35;;;;;;;20.45;5.28;;;;;;;;;;6214016;28;20049;-75
2021/06/21 00:25:37;;;;;;;18.65;5.22;;;;;;;;;;6209534;28;20052;-77
2021/06/21 00:28:39;;;;;;;18.30;5.63;;;;;;;;;;6219976;28;20562;-74
2021/06/21 00:31:42;;;;;;;16.85;5.32;;;;;;;;;;6220238;28;20057;-75
2021/06/21 00:34:44;;;;;;;24.10;5.70;;;;;;;;;;6203237;28;20042;-74
2021/06/21 00:37:54;;;;;;;17.27;5.03;;;;;;;;;;6214457;28;20059;-74
2021/06/21 00:40:55;;;;;;;12.23;4.55;;;;;;;;;;6208970;28;20063;-74
2021/06/21 00:43:57;;;;;;;16.70;5.15;;;;;;;;;;6218154;28;20049;-75
2021/06/21 00:46:59;;;;;;;17.25;4.95;;;;;;;;;;6212557;28;20057;-74
2021/06/21 00:50:03;;;;;;;21.33;5.57;;;;;;;;;;6210718;28;20045;-75
2021/06/21 00:53:37;;;;;;;17.27;5.00;;;;;;;;;;6167264;28;20436;-75
2021/06/21 00:56:39;;;;;;;16.40;5.03;;;;;;;;;;6187152;28;20052;-74
2021/06/21 00:59:41;;;;;;;25.65;5.22;;;;;;;;;;6188759;28;20528;-75
2021/06/21 01:02:43;;;;;;;16.77;5.50;;;;;;;;;;6185047;28;20120;-75
2021/06/21 01:05:45;;;;;;;18.97;4.77;;;;;;;;;;6185620;28;20246;-74
2021/06/21 01:08:49;;;;;;;16.13;4.57;;;;;;;;;;6174758;28;20616;-75
2021/06/21 01:11:55;;;;;;;20.00;5.05;;;;;;;;;;6185931;28;20050;-74
2021/06/21 01:15:03;;;;;;;13.85;5.20;;;;;;;;;;6187999;28;20084;-75
2021/06/21 01:18:08;;;;;;;15.65;4.68;;;;;;;;;;6189667;28;20042;-75
2021/06/21 01:21:26;;;;;;;20.30;5.13;;;;;;;;;;6193171;28;20049;-75
2021/06/21 01:24:57;;;;;;;14.15;4.82;;;;;;;;;;6204539;28;20616;-76
2021/06/21 01:28:03;;;;;;;20.13;5.35;;;;;;;;;;6186935;28;20053;-76
2021/06/21 01:31:09;;;;;;;17.83;5.55;;;;;;;;;;6194206;28;20042;-74
2021/06/21 01:34:13;;;;;;;16.13;5.03;;;;;;;;;;6189410;28;20065;-74
2021/06/21 01:37:23;;;;;;;17.35;4.68;;;;;;;;;;6201981;28;20058;-75
2021/06/21 01:40:25;;;;;;;17.77;5.45;;;;;;;;;;6192997;28;20121;-75
2021/06/21 01:43:33;;;;;;;21.27;5.10;;;;;;;;;;6205624;28;20088;-74
2021/06/21 01:46:36;;;;;;;19.27;4.60;;;;;;;;;;6194890;28;20043;-74
2021/06/21 01:49:42;;;;;;;16.70;4.80;;;;;;;;;;6202065;28;20051;-75
2021/06/21 01:52:44;;;;;;;21.75;5.00;;;;;;;;;;6192236;28;20149;-76
2021/06/21 01:55:50;;;;;;;20.58;5.10;;;;;;;;;;6189226;28;20181;-77
2021/06/21 01:58:54;;;;;;;11.77;4.60;;;;;;;;;;6197508;28;20050;-75
2021/06/21 02:02:06;;;;;;;16.58;5.25;;;;;;;;;;6206623;28;20057;-76
2021/06/21 02:05:12;;;;;;;17.02;4.38;;;;;;;;;;6201965;28;20122;-75
2021/06/21 02:08:15;;;;;;;18.40;5.25;;;;;;;;;;6195893;28;20058;-75
2021/06/21 02:11:18;;;;;;;16.05;4.72;;;;;;;;;;6200012;28;20115;-75
2021/06/21 02:14:23;;;;;;;;;;;;;;;;;;6194521;28;20065;-75
2021/06/21 02:17:26;;;;;;;13.32;4.78;;;;;;;;;;6197335;28;20312;-76
2021/06/21 02:23:49;;;;;;;12.13;4.70;;;;;;;;;;6198532;28;20111;-77
2021/06/21 02:26:50;;;;;;;;;;;;;;;;;;6195300;28;20062;-75
2021/06/21 02:29:53;;;;;;;19.77;4.30;;;;;;;;;;6207196;28;19924;-76
2021/06/21 02:32:55;;;;;;;16.25;4.25;;;;;;;;;;6189316;28;20093;-75
2021/06/21 02:36:02;;;;;;;14.45;4.47;;;;;;;;;;6224450;28;20126;-77
2021/06/21 02:39:06;;;;;;;13.15;4.70;;;;;;;;;;6213434;28;20072;-77
2021/06/21 02:42:09;;;;;;;17.88;4.63;;;;;;;;;;6200631;28;20054;-76
2021/06/21 02:45:11;;;;;;;18.77;4.33;;;;;;;;;;6194949;28;20050;-75
2021/06/21 02:48:17;;;;;;;20.90;5.10;;;;;;;;;;6182501;28;20053;-75
2021/06/21 02:51:25;;;;;;;16.15;5.05;;;;;;;;;;6195702;28;20066;-75
2021/06/21 02:54:29;;;;;;;12.50;4.03;;;;;;;;;;6200413;28;20042;-76
2021/06/21 02:57:38;;;;;;;12.70;4.53;;;;;;;;;;6219321;28;20070;-76
2021/06/21 03:00:55;;;;;;;17.10;4.43;;;;;;;;;;6220580;28;20104;-76
2021/06/21 03:03:59;;;;;;;13.95;5.13;;;;;;;;;;6234015;28;20460;-76
2021/06/21 03:07:04;;;;;;;14.00;5.05;;;;;;;;;;6226673;28;20179;-76
2021/06/21 03:10:06;;;;;;;17.85;5.25;;;;;;;;;;6204724;28;20056;-77
2021/06/21 03:13:09;;;;;;;16.13;4.80;;;;;;;;;;6191441;28;20051;-77
2021/06/21 03:16:11;;;;;;;;;;;;;;;;;;6210959;28;20042;-75
2021/06/21 03:19:15;;;;;;;15.30;5.35;;;;;;;;;;6214522;28;19921;-76
2021/06/21 03:22:20;;;;;;;18.40;4.82;;;;;;;;;;6215028;28;20068;-76
2021/06/21 03:25:25;;;;;;;20.02;4.43;;;;;;;;;;6227384;28;20081;-76
2021/06/21 03:28:37;;;;;;;17.05;5.30;;;;;;;;;;6212770;28;20057;-76
2021/06/21 03:31:39;;;;;;;15.38;4.60;;;;;;;;;;6217922;28;20179;-76
2021/06/21 03:34:41;;;;;;;18.38;5.07;;;;;;;;;;6214840;28;20046;-75
2021/06/21 03:37:44;;;;;;;18.35;4.78;;;;;;;;;;6240757;28;20044;-76
2021/06/21 03:40:46;;;;;;;;;;;;;;;;;;6234230;28;20064;-76
2021/06/21 03:43:48;;;;;;;12.85;4.47;;;;;;;;;;6216723;28;19925;-76
2021/06/21 03:46:49;;;;;;;20.10;4.88;;;;;;;;;;6231646;28;20044;-76
2021/06/21 03:49:52;;;;;;;16.10;5.05;;;;;;;;;;6216894;28;20099;-76
2021/06/21 03:52:55;;;;;;;16.90;4.65;;;;;;;;;;6217399;28;20082;-76
2021/06/21 03:55:57;;;;;;;18.35;5.55;;;;;;;;;;6215038;28;20048;-76
2021/06/21 03:58:59;;;;;;;18.23;5.95;;;;;;;;;;6218717;28;20054;-76
2021/06/21 04:02:01;;;;;;;21.33;4.72;;;;;;;;;;6215886;28;20057;-76
2021/06/21 04:05:03;;;;;;;18.42;4.43;;;;;;;;;;6219072;28;20049;-75
2021/06/21 04:08:06;;;;;;;18.08;5.07;;;;;;;;;;6213528;28;20057;-76
2021/06/21 04:11:08;;;;;;;24.73;4.88;;;;;;;;;;6220359;28;20042;-76
2021/06/21 04:14:11;;;;;;;21.40;4.85;;;;;;;;;;6214141;28;20057;-75
2021/06/21 04:17:14;;;;;;;21.02;5.05;;;;;;;;;;6212082;28;20058;-75
2021/06/21 04:20:17;;;;;;;;;;;;;;;;;;6219016;28;20079;-76
2021/06/21 04:23:21;;;;;;;21.13;4.90;;;;;;;;;;6212892;28;19930;-75
2021/06/21 04:26:25;;;;;;;19.98;4.78;;;;;;;;;;6214266;28;20069;-76
2021/06/21 04:29:29;;;;;;;20.50;4.57;;;;;;;;;;6209020;28;20058;-79
2021/06/21 04:32:37;;;;;;;14.90;4.65;;;;;;;;;;6198304;28;20171;-75
2021/06/21 04:35:39;;;;;;;20.23;5.28;;;;;;;;;;6219937;28;20132;-75
2021/06/21 04:38:45;;;;;;;29.33;5.15;;;;;;;;;;6203808;28;20059;-76
2021/06/21 04:41:47;;;;;;;14.38;5.18;;;;;;;;;;6232259;28;20615;-75
2021/06/21 04:44:49;;;;;;;15.32;5.32;;;;;;;;;;6217789;28;20085;-75
2021/06/21 04:47:51;;;;;;;19.60;5.18;;;;;;;;;;6219982;28;23237;-75
2021/06/21 04:50:53;;;;;;;17.85;4.75;;;;;;;;;;6222157;28;20123;-75
2021/06/21 04:53:56;;;;;;;20.92;4.85;;;;;;;;;;6220556;28;20053;-75
2021/06/21 04:56:58;;;;;;;22.92;4.80;;;;;;;;;;6223626;28;20037;-75
2021/06/21 05:00:00;;;;;;;25.75;4.78;;;;;;;;;;6230447;28;20444;-76
2021/06/21 05:03:01;;;;;;;16.52;4.97;;;;;;;;;;6250193;28;20043;-76
2021/06/21 05:06:04;;;;;;;30.65;5.13;;;;;;;;;;6211866;28;20502;-76
2021/06/21 05:09:09;;;;;;;20.55;4.53;;;;;;;;;;6254819;28;20066;-76
2021/06/21 05:12:11;;;;;;;22.55;5.00;;;;;;;;;;6218106;28;20067;-76
2021/06/21 05:15:21;;;;;;;14.32;5.03;;;;;;;;;;6233837;28;20158;-75
2021/06/21 05:18:23;;;;;;;15.77;4.43;;;;;;;;;;6219783;28;20057;-75
2021/06/21 05:25:06;;;;;;;20.92;5.18;;;;;;;;;;6191506;28;20616;-75
2021/06/21 05:28:08;;;;;;;20.95;5.35;;;;;;;;;;6206899;28;20308;-75
2021/06/21 05:31:13;;;;;;;24.02;5.13;;;;;;;;;;6210101;28;20101;-76
2021/06/21 05:34:15;;;;;;;19.88;5.45;;;;;;;;;;6198034;28;20064;-75
2021/06/21 05:37:16;;;;;;;23.00;4.90;;;;;;;;;;6213752;28;20134;-74
2021/06/21 05:40:29;;;;;;;16.98;5.25;;;;;;;;;;6221271;28;20050;-75
2021/06/21 05:43:31;;;;;;;20.05;5.63;;;;;;;;;;6218195;28;20128;-74
2021/06/21 05:46:32;;;;;;;19.73;5.53;;;;;;;;;;6234218;28;20125;-75
2021/06/21 05:49:34;;;;;;;22.40;4.93;;;;;;;;;;6227197;28;20058;-74
2021/06/21 05:52:36;;;;;;;17.67;4.88;;;;;;;;;;6217383;28;20546;-75
2021/06/21 05:55:39;;;;;;;25.42;5.47;;;;;;;;;;6230748;28;20107;-75
2021/06/21 05:58:42;;;;;;;19.13;4.63;;;;;;;;;;6222419;28;20629;-75
2021/06/21 06:01:43;;;;;;;19.80;5.35;;;;;;;;;;6222887;28;20061;-75
2021/06/21 06:04:45;;;;;;;18.17;5.80;;;;;;;;;;6219221;28;20056;-75
2021/06/21 06:07:47;;;;;;;24.55;5.30;;;;;;;;;;6216264;28;20042;-75
2021/06/21 06:10:50;;;;;;;18.35;5.05;;;;;;;;;;6222964;28;20061;-75
2021/06/21 06:13:52;;;;;;;21.02;4.75;;;;;;;;;;6222619;28;20050;-79
2021/06/21 06:16:54;;;;;;;16.35;5.15;;;;;;;;;;6224778;28;20057;-75
2021/06/21 06:19:56;;;;;;;20.30;4.33;;;;;;;;;;6217180;28;20039;-74
2021/06/21 06:22:58;;;;;;;31.45;5.22;;;;;;;;;;6248903;28;20081;-75
2021/06/21 06:26:02;;;;;;;29.40;5.55;;;;;;;;;;6219889;28;20084;-76
2021/06/21 06:29:03;;;;;;;21.85;4.95;;;;;;;;;;6214840;28;20133;-75
2021/06/21 06:32:06;;;;;;;28.02;5.45;;;;;;;;;;6208168;28;20046;-75
2021/06/21 06:35:09;;;;;;;27.75;5.07;;;;;;;;;;6221493;28;20119;-74
2021/06/21 06:38:10;;;;;;;;;;;;;;;;;;6213422;28;20115;-74
2021/06/21 06:41:14;;;;;;;24.70;5.45;;;;;;;;;;6211229;28;19936;-75
2021/06/21 06:44:15;;;;;;;21.83;5.38;;;;;;;;;;6234178;28;20054;-75
2021/06/21 06:47:17;;;;;;;27.92;5.47;;;;;;;;;;6224318;28;20066;-75
2021/06/21 06:50:20;;;;;;;24.05;5.10;;;;;;;;;;6204108;28;20065;-76
2021/06/21 06:53:37;;;;;;;26.35;4.65;;;;;;;;;;6200145;28;20187;-75
2021/06/21 06:56:59;;;;;;;21.50;5.07;;;;;;;;;;6184837;28;20061;-76
2021/06/21 07:00:01;;;;;;;23.30;5.20;;;;;;;;;;6190104;28;20073;-75
2021/06/21 07:03:02;;;;;;;23.67;5.00;;;;;;;;;;6203745;28;20728;-76
2021/06/21 07:06:05;;;;;;;29.15;5.10;;;;;;;;;;6202919;28;20070;-76
2021/06/21 07:09:06;;;;;;;23.92;5.05;;;;;;;;;;6194902;28;20057;-74
2021/06/21 07:12:10;;;;;;;20.55;4.95;;;;;;;;;;6196454;28;20053;-75
2021/06/21 07:15:13;;;;;;;28.88;5.53;;;;;;;;;;6184674;28;20047;-74
2021/06/21 07:18:15;;;;;;;25.70;5.25;;;;;;;;;;6194417;28;20058;-74
2021/06/21 07:21:17;;;;;;;27.35;5.68;;;;;;;;;;6202530;28;20127;-75
2021/06/21 07:24:19;;;;;;;27.40;6.28;;;;;;;;;;6211035;28;20054;-74
2021/06/21 07:27:22;;;;;;;21.15;5.30;;;;;;;;;;6205090;28;20040;-75
2021/06/21 07:30:24;;;;;;;27.98;5.45;;;;;;;;;;6212278;28;20047;-74
2021/06/21 07:33:26;;;;;;;26.05;6.20;;;;;;;;;;6197999;28;20143;-74
2021/06/21 07:36:28;;;;;;;29.77;7.20;;;;;;;;;;6211148;28;20082;-74
2021/06/21 07:39:30;;;;;;;26.45;5.70;;;;;;;;;;6209198;28;20054;-75
2021/06/21 07:42:33;;;;;;;25.88;5.50;;;;;;;;;;6205747;28;20079;-74
2021/06/21 07:45:35;;;;;;;20.30;4.80;;;;;;;;;;6195546;28;20059;-74
2021/06/21 07:48:40;;;;;;;27.27;6.20;;;;;;;;;;6199795;28;20058;-75
2021/06/21 07:51:43;;;;;;;26.90;5.53;;;;;;;;;;6268868;28;20068;-74
2021/06/21 07:54:45;;;;;;;24.58;6.30;;;;;;;;;;6241060;28;20046;-74
2021/06/21 07:57:48;;;;;;;23.90;5.10;;;;;;;;;;6210926;28;20049;-75
2021/06/21 08:00:50;;;;;;;25.40;5.47;;;;;;;;;;6211806;28;20077;-74
2021/06/21 08:03:53;;;;;;;24.90;6.20;;;;;;;;;;6218945;28;20091;-74
2021/06/21 08:06:55;;;;;;;27.33;6.35;;;;;;;;;;6242641;28;20050;-75
2021/06/21 08:09:57;;;;;;;27.42;5.60;;;;;;;;;;6222570;28;20119;-74
2021/06/21 08:13:00;;;;;;;26.67;5.50;;;;;;;;;;6213384;28;20053;-75
2021/06/21 08:16:02;;;;;;;21.85;5.40;;;;;;;;;;6248848;28;20546;-76
2021/06/21 08:19:03;;;;;;;21.40;4.60;;;;;;;;;;6215085;28;20096;-75
2021/06/21 08:22:05;;;;;;;25.13;5.18;;;;;;;;;;6216079;28;20755;-75
2021/06/21 08:25:08;;;;;;;20.63;6.22;;;;;;;;;;6212639;28;20416;-75
2021/06/21 08:28:11;;;;;;;24.27;4.97;;;;;;;;;;6216865;28;20058;-74
2021/06/21 08:31:13;;;;;;;22.58;5.03;;;;;;;;;;6221866;28;20109;-74
2021/06/21 08:34:14;;;;;;;26.75;4.82;;;;;;;;;;6239067;28;20426;-75
2021/06/21 08:37:17;;;;;;;21.55;4.75;;;;;;;;;;6212956;28;20064;-75
2021/06/21 08:40:21;;;;;;;;;;;;;;;;;;6231420;28;20043;-74
2021/06/21 08:43:24;;;;;;;20.80;5.28;;;;;;;;;;6267869;28;20321;-74
2021/06/21 08:46:25;;;;;;;25.00;5.72;;;;;;;;;;6214762;28;20053;-74
2021/06/21 08:49:29;;;;;;;25.42;4.93;;;;;;;;;;6216503;28;20049;-74
2021/06/21 08:52:31;;;;;;;22.42;5.38;;;;;;;;;;6241324;28;20049;-75
2021/06/21 08:55:32;;;;;;;17.80;5.18;;;;;;;;;;6310531;28;20039;-74
2021/06/21 08:58:36;;;;;;;22.30;4.97;;;;;;;;;;6313226;28;20043;-75
2021/06/21 09:01:40;;;;;;;26.42;6.00;;;;;;;;;;6307266;28;20095;-74
2021/06/21 09:04:42;;;;;;;22.95;6.20;;;;;;;;;;6308540;28;20221;-74
2021/06/21 09:07:45;;;;;;;23.25;5.70;;;;;;;;;;6316673;28;21964;-74
2021/06/21 09:10:51;;;;;;;25.45;5.68;;;;;;;;;;6312599;28;20056;-75
2021/06/21 09:13:54;;;;;;;22.25;4.95;;;;;;;;;;6313046;28;20044;-75
2021/06/21 09:16:57;;;;;;;22.60;4.65;;;;;;;;;;6315460;28;20129;-75
2021/06/21 09:20:00;;;;;;;24.58;4.78;;;;;;;;;;6313335;28;20101;-75
2021/06/21 09:23:04;;;;;;;23.23;4.95;;;;;;;;;;6312708;28;20500;-74
2021/06/21 09:26:16;;;;;;;22.95;5.90;;;;;;;;;;6308966;28;20197;-75
2021/06/21 09:29:32;;;;;;;26.42;5.55;;;;;;;;;;6306225;28;20125;-75
2021/06/21 09:32:43;;;;;;;24.10;4.88;;;;;;;;;;6308793;28;20047;-75
2021/06/21 09:35:45;;;;;;;20.25;4.95;;;;;;;;;;6315024;28;20040;-75
2021/06/21 09:38:47;;;;;;;23.75;5.40;;;;;;;;;;6299173;28;20143;-74
2021/06/21 09:42:20;;;;;;;21.85;4.60;;;;;;;;;;6311129;28;20089;-74
2021/06/21 09:45:24;;;;;;;24.27;5.90;;;;;;;;;;6217402;28;20073;-75
2021/06/21 09:48:31;;;;;;;23.25;5.75;;;;;;;;;;6307369;28;20055;-75
2021/06/21 09:51:34;;;;;;;22.83;4.82;;;;;;;;;;6248725;28;20044;-75
2021/06/21 09:54:35;;;;;;;21.83;4.97;;;;;;;;;;6222970;28;20065;-75
2021/06/21 09:57:38;;;;;;;25.15;5.32;;;;;;;;;;6231197;28;20127;-76
2021/06/21 10:00:42;;;;;;;;;;;;;;;;;;6211010;28;20465;-74
2021/06/21 10:03:45;;;;;;;23.40;5.13;;;;;;;;;;6212987;28;20356;-75
2021/06/21 10:06:46;;;;;;;23.02;4.82;;;;;;;;;;6208918;28;20113;-74
2021/06/21 10:09:51;;;;;;;15.13;4.68;;;;;;;;;;6238362;28;20099;-74
2021/06/21 10:12:53;;;;;;;18.98;4.55;;;;;;;;;;6250736;28;20091;-74
2021/06/21 10:15:56;;;;;;;23.25;5.90;;;;;;;;;;6215352;28;20046;-74
2021/06/21 10:18:58;;;;;;;19.25;5.10;;;;;;;;;;6223945;28;20125;-74
2021/06/21 10:21:59;;;;;;;27.58;5.93;;;;;;;;;;6212344;28;20096;-74
2021/06/21 10:25:01;;;;;;;25.17;5.35;;;;;;;;;;6247763;28;20063;-74
2021/06/21 10:28:04;;;;;;;22.92;6.13;;;;;;;;;;6211407;28;20077;-75
2021/06/21 10:31:07;;;;;;;27.13;6.22;;;;;;;;;;6215494;28;20049;-73
2021/06/21 10:34:09;;;;;;;17.75;5.53;;;;;;;;;;6209750;28;20425;-74
2021/06/21 10:37:13;;;;;;;18.83;4.47;;;;;;;;;;6209250;28;20158;-74
2021/06/21 10:40:15;;;;;;;21.85;4.90;;;;;;;;;;6216978;28;20056;-74
2021/06/21 10:43:51;;;;;;;25.35;5.47;;;;;;;;;;6208927;28;20131;-74
2021/06/21 10:47:25;;;;;;;21.23;4.68;;;;;;;;;;6206883;28;20049;-74
2021/06/21 10:50:28;;;;;;;20.80;5.30;;;;;;;;;;6206105;28;20053;-74
2021/06/21 10:53:53;;;;;;;20.15;5.32;;;;;;;;;;6210672;28;20122;-76
2021/06/21 10:56:57;;;;;;;26.88;5.43;;;;;;;;;;6212266;28;20501;-74
2021/06/21 11:00:15;;;;;;;20.30;5.00;;;;;;;;;;6214329;28;20046;-74
2021/06/21 11:03:38;;;;;;;20.80;5.03;;;;;;;;;;6227636;28;20072;-74
2021/06/21 11:06:41;;;;;;;23.08;5.43;;;;;;;;;;6217117;28;20467;-74
2021/06/21 11:09:44;;;;;;;19.55;4.82;;;;;;;;;;6214731;28;20054;-74
2021/06/21 11:12:46;;;;;;;22.95;4.97;;;;;;;;;;6218475;28;20046;-74
2021/06/21 11:16:20;;;;;;;24.10;5.25;;;;;;;;;;6208567;28;20540;-74
2021/06/21 11:19:34;;;;;;;21.38;4.95;;;;;;;;;;6210936;28;20061;-74
2021/06/21 11:22:45;;;;;;;16.05;5.70;;;;;;;;;;6211276;28;20129;-74
2021/06/21 11:25:49;;;;;;;17.55;4.28;;;;;;;;;;6221247;28;20397;-75
2021/06/21 11:28:51;;;;;;;21.38;5.32;;;;;;;;;;6217606;28;20450;-74
2021/06/21 11:32:00;;;;;;;30.48;5.30;;;;;;;;;;6213356;28;20073;-75
2021/06/21 11:35:04;;;;;;;16.98;4.30;;;;;;;;;;6216369;28;20131;-74
2021/06/21 11:38:23;;;;;;;20.65;4.47;;;;;;;;;;6209281;28;20058;-74
2021/06/21 11:41:30;;;;;;;22.70;5.10;;;;;;;;;;6262940;28;20494;-74
2021/06/21 11:44:49;;;;;;;21.20;4.93;;;;;;;;;;6241348;28;20042;-74
2021/06/21 11:47:51;;;;;;;23.50;5.40;;;;;;;;;;6210850;28;20050;-74
2021/06/21 11:50:55;;;;;;;18.15;4.45;;;;;;;;;;6207585;28;20045;-73
2021/06/21 11:54:00;;;;;;;15.20;4.88;;;;;;;;;;6194241;28;20060;-74
2021/06/21 11:57:01;;;;;;;21.70;4.93;;;;;;;;;;6209543;28;20136;-75
2021/06/21 12:00:05;;;;;;;23.67;5.80;;;;;;;;;;6204217;28;20058;-74
2021/06/21 12:03:08;;;;;;;25.23;4.97;;;;;;;;;;6199596;28;20049;-74
2021/06/21 12:06:14;;;;;;;27.30;4.95;;;;;;;;;;6204980;28;20103;-74
2021/06/21 12:09:16;;;;;;;23.30;4.95;;;;;;;;;;6209457;28;20069;-73
2021/06/21 12:12:22;;;;;;;20.38;4.75;;;;;;;;;;6208226;28;20077;-74
2021/06/21 12:15:29;;;;;;;20.85;4.97;;;;;;;;;;6210292;28;20128;-74
2021/06/21 12:18:30;;;;;;;17.63;4.03;;;;;;;;;;6209314;28;20053;-74
2021/06/21 12:21:36;;;;;;;19.63;4.35;;;;;;;;;;6210414;28;20048;-74
2021/06/21 12:24:38;;;;;;;20.95;5.07;;;;;;;;;;6211083;28;20046;-74
2021/06/21 12:27:40;;;;;;;15.63;4.65;;;;;;;;;;6211653;28;20058;-74
2021/06/21 12:30:44;;;;;;;22.80;4.80;;;;;;;;;;6210300;28;20111;-74
2021/06/21 12:33:46;;;;;;;20.55;4.72;;;;;;;;;;6212347;28;20058;-74
2021/06/21 12:36:49;;;;;;;22.55;5.18;;;;;;;;;;6209070;28;20133;-74
2021/06/21 12:39:52;;;;;;;22.30;4.90;;;;;;;;;;6214530;28;20129;-74
2021/06/21 12:42:54;;;;;;;22.67;4.93;;;;;;;;;;6211786;28;20140;-74
2021/06/21 12:45:56;;;;;;;17.45;4.38;;;;;;;;;;6208980;28;20057;-74
2021/06/21 12:48:59;;;;;;;17.98;4.28;;;;;;;;;;6211432;28;20046;-74
2021/06/21 12:52:02;;;;;;;21.67;5.18;;;;;;;;;;6218739;28;20057;-74
2021/06/21 12:55:06;;;;;;;24.65;4.70;;;;;;;;;;6313513;28;20182;-74
2021/06/21 12:58:08;;;;;;;19.95;4.72;;;;;;;;;;6320591;28;20411;-74
2021/06/21 13:01:21;;;;;;;23.25;6.65;;;;;;;;;;6320131;28;20048;-74
2021/06/21 13:04:22;;;;;;;19.92;5.18;;;;;;;;;;6315048;28;20405;-74
2021/06/21 13:07:27;;;;;;;16.85;4.70;;;;;;;;;;6314278;28;20044;-74
2021/06/21 13:10:31;;;;;;;21.73;4.78;;;;;;;;;;6326609;28;20056;-74
2021/06/21 13:13:40;;;;;;;16.58;4.95;;;;;;;;;;6316125;28;20119;-74
2021/06/21 13:16:42;;;;;;;15.63;4.00;;;;;;;;;;6320537;28;20052;-74
2021/06/21 13:19:47;;;;;;;;;;;;;;;;;;6324623;28;20047;-74
2021/06/21 13:22:54;;;;;;;17.20;4.35;;;;;;;;;;6321720;28;20156;-74
2021/06/21 13:25:58;;;;;;;16.73;4.80;;;;;;;;;;6319704;28;20092;-74
2021/06/21 13:29:00;;;;;;;22.48;5.13;;;;;;;;;;6317974;28;20067;-75
2021/06/21 13:32:04;;;;;;;21.30;4.72;;;;;;;;;;6303419;28;20559;-75
2021/06/21 13:35:10;;;;;;;19.55;4.65;;;;;;;;;;6316364;28;20059;-76
2021/06/21 13:38:15;;;;;;;20.58;4.30;;;;;;;;;;6321447;28;20120;-75
2021/06/21 13:41:22;;;;;;;22.50;4.70;;;;;;;;;;6318775;28;20534;-75
2021/06/21 13:44:23;;;;;;;18.58;4.35;;;;;;;;;;6314363;28;20055;-75
2021/06/21 13:47:34;;;;;;;22.27;4.57;;;;;;;;;;6314315;28;20109;-75
2021/06/21 13:50:37;;;;;;;17.92;4.38;;;;;;;;;;6315689;28;20058;-75
2021/06/21 13:53:40;;;;;;;15.75;4.40;;;;;;;;;;6253034;28;20091;-75
2021/06/21 13:56:42;;;;;;;17.23;4.35;;;;;;;;;;6208732;28;20128;-75
2021/06/21 13:59:46;;;;;;;18.50;4.18;;;;;;;;;;6210050;28;20516;-74
2021/06/21 14:02:47;;;;;;;19.17;4.85;;;;;;;;;;6212771;28;20053;-75
2021/06/21 14:05:49;;;;;;;19.60;4.38;;;;;;;;;;6211565;28;20065;-76
2021/06/21 14:08:53;;;;;;;17.67;4.47;;;;;;;;;;6211437;28;20503;-74
2021/06/21 14:11:54;;;;;;;22.88;4.93;;;;;;;;;;6215078;28;20653;-74
2021/06/21 14:14:56;;;;;;;22.15;4.70;;;;;;;;;;6215709;28;20445;-74
2021/06/21 14:17:58;;;;;;;23.80;5.72;;;;;;;;;;6213404;28;20050;-75
2021/06/21 14:21:00;;;;;;;23.42;5.40;;;;;;;;;;6211696;28;20137;-74
2021/06/21 14:24:03;;;;;;;24.50;5.82;;;;;;;;;;6207229;28;20072;-75
2021/06/21 14:27:05;;;;;;;16.50;3.85;;;;;;;;;;6200309;28;20077;-75
2021/06/21 14:30:09;;;;;;;20.58;5.28;;;;;;;;;;6216401;28;20102;-75
2021/06/21 14:33:11;;;;;;;22.70;4.53;;;;;;;;;;6207999;28;20072;-74
2021/06/21 14:36:13;;;;;;;21.97;4.57;;;;;;;;;;6208874;28;20083;-75
2021/06/21 14:39:16;;;;;;;17.95;4.97;;;;;;;;;;6208612;28;20202;-76
2021/06/21 14:42:17;;;;;;;19.45;5.20;;;;;;;;;;6208617;28;20176;-75
2021/06/21 14:45:19;;;;;;;14.97;4.17;;;;;;;;;;6205050;28;20142;-75
2021/06/21 14:48:21;;;;;;;20.37;4.30;;;;;;;;;;6209607;28;20080;-74
2021/06/21 14:51:23;;;;;;;22.67;5.55;;;;;;;;;;6211226;28;20123;-75
2021/06/21 14:54:26;;;;;;;19.80;4.35;;;;;;;;;;6209702;28;20069;-73
2021/06/21 14:57:27;;;;;;;23.92;4.80;;;;;;;;;;6209454;28;20108;-73
2021/06/21 15:00:29;;;;;;;26.52;5.22;;;;;;;;;;6209248;28;20545;-73
2021/06/21 15:03:31;;;;;;;18.40;4.68;;;;;;;;;;6208225;28;20073;-73
2021/06/21 15:06:32;;;;;;;15.25;3.90;;;;;;;;;;6211854;28;20099;-72
2021/06/21 15:09:36;;;;;;;16.65;4.43;;;;;;;;;;6208859;28;20065;-73
2021/06/21 15:12:37;;;;;;;17.73;4.32;;;;;;;;;;6209761;28;20401;-73
2021/06/21 15:15:39;;;;;;;23.70;5.07;;;;;;;;;;6212705;28;20172;-72
2021/06/21 15:18:42;;;;;;;24.20;5.13;;;;;;;;;;6208655;28;20481;-72
2021/06/21 15:21:44;;;;;;;21.33;4.30;;;;;;;;;;6208840;28;20046;-72
2021/06/21 15:24:47;;;;;;;19.05;4.30;;;;;;;;;;6209410;28;20483;-73
2021/06/21 15:27:49;;;;;;;23.17;3.92;;;;;;;;;;6208276;28;20061;-73
2021/06/21 15:30:54;;;;;;;20.38;4.53;;;;;;;;;;6209970;28;20061;-73
2021/06/21 15:33:55;;;;;;;22.65;4.32;;;;;;;;;;6212822;28;20049;-73
2021/06/21 15:36:57;;;;;;;15.30;4.13;;;;;;;;;;6208404;28;20050;-73
2021/06/21 15:40:00;;;;;;;13.50;4.03;;;;;;;;;;6211223;28;20080;-73
2021/06/21 15:43:02;;;;;;;17.88;4.35;;;;;;;;;;6209817;28;20042;-73
2021/06/21 15:46:04;;;;;;;30.30;5.13;;;;;;;;;;6208960;28;20077;-73
2021/06/21 15:49:05;;;;;;;21.40;4.40;;;;;;;;;;6212936;28;20749;-74
2021/06/21 15:52:08;;;;;;;22.83;4.43;;;;;;;;;;6226833;28;20399;-73
2021/06/21 15:55:12;;;;;;;20.33;4.28;;;;;;;;;;6313580;28;20040;-73
2021/06/21 15:58:17;;;;;;;20.15;3.78;;;;;;;;;;6312492;28;20079;-73
2021/06/21 16:01:19;;;;;;;18.95;3.72;;;;;;;;;;6313512;28;20399;-73
2021/06/21 16:04:22;;;;;;;20.17;5.15;;;;;;;;;;6308877;28;20056;-73
2021/06/21 16:07:23;;;;;;;19.23;4.03;;;;;;;;;;6307521;28;20044;-73
2021/06/21 16:10:27;;;;;;;18.90;4.07;;;;;;;;;;6311862;28;20059;-73
2021/06/21 16:13:29;;;;;;;18.88;4.38;;;;;;;;;;6312649;28;20048;-72
2021/06/21 16:16:30;;;;;;;23.60;4.40;;;;;;;;;;6315123;28;20051;-72
2021/06/21 16:19:32;;;;;;;19.80;3.95;;;;;;;;;;6312884;28;20345;-73
2021/06/21 16:22:34;;;;;;;26.98;5.38;;;;;;;;;;6311898;28;20057;-73
2021/06/21 16:25:38;;;;;;;22.03;4.80;;;;;;;;;;6308748;28;20135;-73
2021/06/21 16:28:40;;;;;;;19.40;4.32;;;;;;;;;;6314079;28;20628;-73
2021/06/21 16:31:41;;;;;;;28.80;5.30;;;;;;;;;;6311863;28;20055;-73
2021/06/21 16:34:44;;;;;;;20.58;5.18;;;;;;;;;;6317213;28;20048;-73
2021/06/21 16:37:50;;;;;;;32.20;5.18;;;;;;;;;;6318716;28;20477;-72
2021/06/21 16:40:53;;;;;;;24.30;4.75;;;;;;;;;;6317606;28;20121;-73
2021/06/21 16:43:55;;;;;;;22.58;4.57;;;;;;;;;;6316556;28;20170;-72
2021/06/21 16:46:57;;;;;;;27.58;4.70;;;;;;;;;;6313422;28;20070;-73
2021/06/21 16:50:00;;;;;;;25.37;4.33;;;;;;;;;;6314341;28;20147;-73
2021/06/21 16:53:02;;;;;;;15.80;3.72;;;;;;;;;;6275776;28;21673;-73
2021/06/21 16:56:08;;;;;;;24.30;4.43;;;;;;;;;;6214487;28;20054;-73
2021/06/21 16:59:10;;;;;;;15.43;4.22;;;;;;;;;;6214548;28;20048;-74
2021/06/21 17:02:11;;;;;;;23.13;3.88;;;;;;;;;;6211776;28;20053;-73
2021/06/21 17:05:14;;;;;;;20.08;4.40;;;;;;;;;;6209308;28;20050;-73
2021/06/21 17:08:15;;;;;;;20.25;5.25;;;;;;;;;;6208559;28;20141;-73
2021/06/21 17:11:20;;;;;;;16.92;4.00;;;;;;;;;;6208614;28;20389;-79
2021/06/21 17:14:22;;;;;;;24.40;5.15;;;;;;;;;;6208386;28;20094;-74
2021/06/21 17:17:23;;;;;;;21.98;4.18;;;;;;;;;;6214160;28;20066;-73
2021/06/21 17:20:26;;;;;;;23.17;4.38;;;;;;;;;;6207344;28;20139;-73
2021/06/21 17:23:27;;;;;;;20.65;3.55;;;;;;;;;;6211393;28;20080;-74
2021/06/21 17:26:30;;;;;;;13.07;3.17;;;;;;;;;;6220020;28;20125;-74
2021/06/21 17:29:32;;;;;;;20.35;4.05;;;;;;;;;;6209834;28;20050;-74
2021/06/21 17:32:34;;;;;;;22.50;4.38;;;;;;;;;;6212966;28;20126;-75
2021/06/21 17:35:36;;;;;;;20.38;3.67;;;;;;;;;;6217234;28;20638;-75
2021/06/21 17:38:37;;;;;;;15.68;3.30;;;;;;;;;;6208084;28;20126;-74
2021/06/21 17:41:43;;;;;;;29.02;4.95;;;;;;;;;;6213541;28;20130;-74
2021/06/21 17:44:47;;;;;;;22.50;4.53;;;;;;;;;;6209665;28;20163;-75
2021/06/21 17:47:49;;;;;;;17.45;4.45;;;;;;;;;;6210752;28;20088;-75
2021/06/21 17:50:51;;;;;;;27.80;6.07;;;;;;;;;;6200382;28;20416;-74
2021/06/21 17:53:52;;;;;;;20.00;3.85;;;;;;;;;;6206218;28;20587;-74
2021/06/21 17:56:55;;;;;;;18.92;3.97;;;;;;;;;;6210049;28;20053;-74
2021/06/21 17:59:59;;;;;;;;;;;;;;;;;;6211983;28;20156;-74
2021/06/21 18:03:01;;;;;;;22.13;3.92;;;;;;;;;;6203538;28;20672;-74
2021/06/21 18:06:03;;;;;;;30.15;5.15;;;;;;;;;;6212358;28;20050;-74
2021/06/21 18:09:05;;;;;;;23.33;4.65;;;;;;;;;;6211164;28;20081;-74
2021/06/21 18:12:09;;;;;;;28.57;4.90;;;;;;;;;;6209547;28;20149;-73
2021/06/21 18:15:13;;;;;;;30.90;5.60;;;;;;;;;;6208032;28;20778;-74
2021/06/21 18:18:15;;;;;;;18.45;3.95;;;;;;;;;;6211121;28;20042;-74